Croton, Iowa
Current Conditions -  °F | °C
As of 3:15 PM on Monday 22 Dec 2014 (Local Time) from KEOK Reporting Station
Unknown Precip Unknown Precip  
Wind Chill: 39°   Ceiling: 300
Heat Index: 43°   Visibility: 0.75mi
Dew Point: 41°   Wind: 7mph
Humidity: 93%   Direction: 140°SE
Pressure: 29.53"   Gusts: NA
Location:  40.64°N, 91.79°W
Report Text: KEOK 222115Z AUTO 14006KT 3/4SM -UP OVC003 06/05 A2953 RMK AO2
Loading
Personal Weather Stations






























Interactive Weather Map New forecast layout! Learn more

10-Day Weather Forecast

Advertisements
Track Severe Weather on mobile